sensor_id;sensor_type;location;lat;lon;timestamp;P1;durP1;ratioP1;P2;durP2;ratioP2
29358;SDS011;16347;53.232;6.556;2023-06-26T00:00:00;8.65;;;6.20;;
29358;SDS011;16347;53.232;6.556;2023-06-26T00:02:30;7.97;;;5.78;;
29358;SDS011;16347;53.232;6.556;2023-06-26T00:04:59;8.50;;;5.70;;
29358;SDS011;16347;53.232;6.556;2023-06-26T00:07:29;10.75;;;6.22;;
29358;SDS011;16347;53.232;6.556;2023-06-26T00:09:57;9.52;;;6.35;;
29358;SDS011;16347;53.232;6.556;2023-06-26T00:12:26;9.10;;;5.60;;
29358;SDS011;16347;53.232;6.556;2023-06-26T00:14:53;8.32;;;5.75;;
29358;SDS011;16347;53.232;6.556;2023-06-26T00:17:23;13.52;;;6.68;;
29358;SDS011;16347;53.232;6.556;2023-06-26T00:19:51;8.52;;;5.68;;
29358;SDS011;16347;53.232;6.556;2023-06-26T00:22:20;7.60;;;6.05;;
29358;SDS011;16347;53.232;6.556;2023-06-26T00:24:48;9.88;;;5.75;;
29358;SDS011;16347;53.232;6.556;2023-06-26T00:27:17;7.55;;;5.88;;
29358;SDS011;16347;53.232;6.556;2023-06-26T00:29:44;9.25;;;5.80;;
29358;SDS011;16347;53.232;6.556;2023-06-26T00:32:12;9.30;;;6.60;;
29358;SDS011;16347;53.232;6.556;2023-06-26T00:34:41;9.68;;;6.25;;
29358;SDS011;16347;53.232;6.556;2023-06-26T00:37:09;7.55;;;6.13;;
29358;SDS011;16347;53.232;6.556;2023-06-26T00:39:38;10.68;;;6.40;;
29358;SDS011;16347;53.232;6.556;2023-06-26T00:42:07;8.60;;;6.45;;
29358;SDS011;16347;53.232;6.556;2023-06-26T00:44:37;8.30;;;5.88;;
29358;SDS011;16347;53.232;6.556;2023-06-26T00:47:04;7.72;;;6.03;;
29358;SDS011;16347;53.232;6.556;2023-06-26T00:49:33;8.90;;;6.18;;
29358;SDS011;16347;53.232;6.556;2023-06-26T00:52:02;12.55;;;6.07;;
29358;SDS011;16347;53.232;6.556;2023-06-26T00:54:31;9.63;;;5.82;;
29358;SDS011;16347;53.232;6.556;2023-06-26T00:56:59;9.50;;;6.25;;
29358;SDS011;16347;53.232;6.556;2023-06-26T00:59:27;8.88;;;6.20;;
29358;SDS011;16347;53.232;6.556;2023-06-26T01:01:55;8.38;;;6.20;;
29358;SDS011;16347;53.232;6.556;2023-06-26T01:04:23;9.15;;;7.13;;
29358;SDS011;16347;53.232;6.556;2023-06-26T01:06:54;6.97;;;5.63;;
29358;SDS011;16347;53.232;6.556;2023-06-26T01:09:25;9.85;;;6.88;;
29358;SDS011;16347;53.232;6.556;2023-06-26T01:11:53;7.78;;;5.30;;
29358;SDS011;16347;53.232;6.556;2023-06-26T01:14:21;8.02;;;6.05;;
29358;SDS011;16347;53.232;6.556;2023-06-26T01:16:49;8.75;;;6.97;;
29358;SDS011;16347;53.232;6.556;2023-06-26T01:19:19;10.50;;;6.43;;
29358;SDS011;16347;53.232;6.556;2023-06-26T01:21:54;11.77;;;6.53;;
29358;SDS011;16347;53.232;6.556;2023-06-26T01:24:30;7.65;;;6.28;;
29358;SDS011;16347;53.232;6.556;2023-06-26T01:27:04;10.75;;;6.72;;
29358;SDS011;16347;53.232;6.556;2023-06-26T01:29:34;8.95;;;6.00;;
29358;SDS011;16347;53.232;6.556;2023-06-26T01:32:06;8.73;;;6.78;;
29358;SDS011;16347;53.232;6.556;2023-06-26T01:34:35;7.78;;;6.05;;
29358;SDS011;16347;53.232;6.556;2023-06-26T01:37:04;10.65;;;6.60;;
29358;SDS011;16347;53.232;6.556;2023-06-26T01:39:32;10.05;;;6.40;;
29358;SDS011;16347;53.232;6.556;2023-06-26T01:42:00;8.25;;;6.15;;
29358;SDS011;16347;53.232;6.556;2023-06-26T01:44:32;9.48;;;6.68;;
29358;SDS011;16347;53.232;6.556;2023-06-26T01:47:06;9.13;;;6.65;;
29358;SDS011;16347;53.232;6.556;2023-06-26T01:49:39;9.43;;;6.78;;
29358;SDS011;16347;53.232;6.556;2023-06-26T01:52:16;10.52;;;6.70;;
29358;SDS011;16347;53.232;6.556;2023-06-26T01:54:54;9.35;;;6.53;;
29358;SDS011;16347;53.232;6.556;2023-06-26T01:57:26;8.20;;;6.35;;
29358;SDS011;16347;53.232;6.556;2023-06-26T01:59:59;6.65;;;5.80;;
29358;SDS011;16347;53.232;6.556;2023-06-26T02:02:39;8.40;;;6.55;;
29358;SDS011;16347;53.232;6.556;2023-06-26T02:05:12;11.80;;;6.25;;
29358;SDS011;16347;53.232;6.556;2023-06-26T02:07:41;8.57;;;6.30;;
29358;SDS011;16347;53.232;6.556;2023-06-26T02:10:10;10.32;;;6.57;;
29358;SDS011;16347;53.232;6.556;2023-06-26T02:12:38;9.18;;;6.72;;
29358;SDS011;16347;53.232;6.556;2023-06-26T02:15:08;10.52;;;6.75;;
29358;SDS011;16347;53.232;6.556;2023-06-26T02:17:38;9.73;;;6.93;;
29358;SDS011;16347;53.232;6.556;2023-06-26T02:20:06;8.23;;;6.93;;
29358;SDS011;16347;53.232;6.556;2023-06-26T02:22:36;15.68;;;8.13;;
29358;SDS011;16347;53.232;6.556;2023-06-26T02:25:04;10.85;;;6.45;;
29358;SDS011;16347;53.232;6.556;2023-06-26T02:27:33;10.73;;;7.45;;
29358;SDS011;16347;53.232;6.556;2023-06-26T02:30:01;10.07;;;7.55;;
29358;SDS011;16347;53.232;6.556;2023-06-26T02:32:31;8.70;;;6.65;;
29358;SDS011;16347;53.232;6.556;2023-06-26T02:34:59;9.25;;;7.43;;
29358;SDS011;16347;53.232;6.556;2023-06-26T02:37:27;9.73;;;7.05;;
29358;SDS011;16347;53.232;6.556;2023-06-26T02:39:55;10.65;;;7.00;;
29358;SDS011;16347;53.232;6.556;2023-06-26T02:42:23;9.00;;;7.00;;
29358;SDS011;16347;53.232;6.556;2023-06-26T02:44:52;11.90;;;7.95;;
29358;SDS011;16347;53.232;6.556;2023-06-26T02:47:20;9.63;;;7.32;;
29358;SDS011;16347;53.232;6.556;2023-06-26T02:49:49;10.82;;;7.70;;
29358;SDS011;16347;53.232;6.556;2023-06-26T02:52:17;12.45;;;7.78;;
29358;SDS011;16347;53.232;6.556;2023-06-26T02:54:46;10.35;;;7.65;;
29358;SDS011;16347;53.232;6.556;2023-06-26T02:57:14;10.07;;;7.75;;
29358;SDS011;16347;53.232;6.556;2023-06-26T02:59:43;11.82;;;7.93;;
29358;SDS011;16347;53.232;6.556;2023-06-26T03:02:12;10.77;;;7.90;;
29358;SDS011;16347;53.232;6.556;2023-06-26T03:04:44;14.40;;;8.57;;
29358;SDS011;16347;53.232;6.556;2023-06-26T03:07:14;11.35;;;8.85;;
29358;SDS011;16347;53.232;6.556;2023-06-26T03:09:42;13.25;;;8.63;;
29358;SDS011;16347;53.232;6.556;2023-06-26T03:12:11;15.30;;;8.77;;
29358;SDS011;16347;53.232;6.556;2023-06-26T03:14:39;13.18;;;8.88;;
29358;SDS011;16347;53.232;6.556;2023-06-26T03:17:07;11.35;;;8.75;;
29358;SDS011;16347;53.232;6.556;2023-06-26T03:19:36;11.57;;;8.45;;
29358;SDS011;16347;53.232;6.556;2023-06-26T03:22:30;12.05;;;8.75;;
29358;SDS011;16347;53.232;6.556;2023-06-26T03:24:58;18.00;;;9.50;;
29358;SDS011;16347;53.232;6.556;2023-06-26T03:27:26;14.73;;;10.05;;
29358;SDS011;16347;53.232;6.556;2023-06-26T03:29:54;12.85;;;9.07;;
29358;SDS011;16347;53.232;6.556;2023-06-26T03:32:22;13.35;;;9.82;;
29358;SDS011;16347;53.232;6.556;2023-06-26T03:34:50;12.32;;;9.10;;
29358;SDS011;16347;53.232;6.556;2023-06-26T03:37:19;14.02;;;9.85;;
29358;SDS011;16347;53.232;6.556;2023-06-26T03:39:50;13.98;;;9.40;;
29358;SDS011;16347;53.232;6.556;2023-06-26T03:42:18;15.55;;;9.95;;
29358;SDS011;16347;53.232;6.556;2023-06-26T03:44:45;14.75;;;9.73;;
29358;SDS011;16347;53.232;6.556;2023-06-26T03:47:16;16.35;;;9.45;;
29358;SDS011;16347;53.232;6.556;2023-06-26T03:49:44;18.13;;;9.88;;
29358;SDS011;16347;53.232;6.556;2023-06-26T03:52:12;12.15;;;9.02;;
29358;SDS011;16347;53.232;6.556;2023-06-26T03:54:40;14.55;;;9.00;;
29358;SDS011;16347;53.232;6.556;2023-06-26T03:57:11;14.52;;;9.50;;
29358;SDS011;16347;53.232;6.556;2023-06-26T03:59:39;17.15;;;9.63;;
29358;SDS011;16347;53.232;6.556;2023-06-26T04:02:07;12.25;;;9.35;;
29358;SDS011;16347;53.232;6.556;2023-06-26T04:04:35;14.43;;;10.30;;
29358;SDS011;16347;53.232;6.556;2023-06-26T04:07:03;11.30;;;9.13;;
29358;SDS011;16347;53.232;6.556;2023-06-26T04:09:31;18.10;;;9.85;;
29358;SDS011;16347;53.232;6.556;2023-06-26T04:11:59;17.77;;;9.60;;
29358;SDS011;16347;53.232;6.556;2023-06-26T04:14:29;19.40;;;10.30;;
29358;SDS011;16347;53.232;6.556;2023-06-26T04:16:57;14.27;;;9.15;;
29358;SDS011;16347;53.232;6.556;2023-06-26T04:19:26;12.98;;;9.10;;
29358;SDS011;16347;53.232;6.556;2023-06-26T04:21:54;12.55;;;9.45;;
29358;SDS011;16347;53.232;6.556;2023-06-26T04:24:22;11.45;;;8.98;;
29358;SDS011;16347;53.232;6.556;2023-06-26T04:26:50;16.27;;;10.05;;
29358;SDS011;16347;53.232;6.556;2023-06-26T04:29:18;14.90;;;8.73;;
29358;SDS011;16347;53.232;6.556;2023-06-26T04:31:47;13.23;;;8.80;;
29358;SDS011;16347;53.232;6.556;2023-06-26T04:34:15;15.98;;;9.43;;
29358;SDS011;16347;53.232;6.556;2023-06-26T04:36:43;13.38;;;8.82;;
29358;SDS011;16347;53.232;6.556;2023-06-26T04:39:12;14.20;;;8.52;;
29358;SDS011;16347;53.232;6.556;2023-06-26T04:41:41;14.65;;;8.30;;
29358;SDS011;16347;53.232;6.556;2023-06-26T04:44:09;12.88;;;8.38;;
29358;SDS011;16347;53.232;6.556;2023-06-26T04:46:37;12.23;;;7.72;;
29358;SDS011;16347;53.232;6.556;2023-06-26T04:49:08;14.55;;;7.60;;
29358;SDS011;16347;53.232;6.556;2023-06-26T04:51:36;13.70;;;8.02;;
29358;SDS011;16347;53.232;6.556;2023-06-26T04:54:07;18.42;;;8.10;;
29358;SDS011;16347;53.232;6.556;2023-06-26T04:56:35;11.23;;;7.35;;
29358;SDS011;16347;53.232;6.556;2023-06-26T04:59:03;12.70;;;7.78;;
29358;SDS011;16347;53.232;6.556;2023-06-26T05:01:31;16.13;;;8.50;;
29358;SDS011;16347;53.232;6.556;2023-06-26T05:03:59;15.23;;;8.75;;
29358;SDS011;16347;53.232;6.556;2023-06-26T05:06:29;21.15;;;10.40;;
29358;SDS011;16347;53.232;6.556;2023-06-26T05:08:57;23.95;;;10.30;;
29358;SDS011;16347;53.232;6.556;2023-06-26T05:11:26;19.48;;;9.90;;
29358;SDS011;16347;53.232;6.556;2023-06-26T05:13:54;24.48;;;9.82;;
29358;SDS011;16347;53.232;6.556;2023-06-26T05:16:22;22.02;;;10.07;;
29358;SDS011;16347;53.232;6.556;2023-06-26T05:18:53;25.75;;;11.82;;
29358;SDS011;16347;53.232;6.556;2023-06-26T05:21:21;33.35;;;10.25;;
29358;SDS011;16347;53.232;6.556;2023-06-26T05:23:51;24.90;;;11.32;;
29358;SDS011;16347;53.232;6.556;2023-06-26T05:28:52;26.05;;;10.90;;
29358;SDS011;16347;53.232;6.556;2023-06-26T05:31:21;18.85;;;10.55;;
29358;SDS011;16347;53.232;6.556;2023-06-26T05:33:50;31.75;;;10.35;;
29358;SDS011;16347;53.232;6.556;2023-06-26T05:36:22;20.63;;;7.83;;
29358;SDS011;16347;53.232;6.556;2023-06-26T05:38:54;22.15;;;7.53;;
29358;SDS011;16347;53.232;6.556;2023-06-26T05:41:23;22.80;;;7.18;;
29358;SDS011;16347;53.232;6.556;2023-06-26T05:43:51;17.35;;;6.28;;
29358;SDS011;16347;53.232;6.556;2023-06-26T05:46:21;16.50;;;6.70;;
29358;SDS011;16347;53.232;6.556;2023-06-26T05:48:49;20.02;;;7.53;;
29358;SDS011;16347;53.232;6.556;2023-06-26T05:51:17;19.48;;;6.38;;
29358;SDS011;16347;53.232;6.556;2023-06-26T05:53:45;17.05;;;7.05;;
29358;SDS011;16347;53.232;6.556;2023-06-26T05:56:15;17.85;;;6.28;;
29358;SDS011;16347;53.232;6.556;2023-06-26T05:58:45;19.55;;;5.65;;
29358;SDS011;16347;53.232;6.556;2023-06-26T06:01:13;16.90;;;5.03;;
29358;SDS011;16347;53.232;6.556;2023-06-26T06:03:42;21.33;;;5.30;;
29358;SDS011;16347;53.232;6.556;2023-06-26T06:06:10;20.35;;;4.95;;
29358;SDS011;16347;53.232;6.556;2023-06-26T06:08:38;19.20;;;4.50;;
29358;SDS011;16347;53.232;6.556;2023-06-26T06:11:06;14.75;;;4.22;;
29358;SDS011;16347;53.232;6.556;2023-06-26T06:13:36;18.00;;;4.97;;
29358;SDS011;16347;53.232;6.556;2023-06-26T06:16:07;23.52;;;5.63;;
29358;SDS011;16347;53.232;6.556;2023-06-26T06:18:35;15.70;;;5.03;;
29358;SDS011;16347;53.232;6.556;2023-06-26T06:21:03;24.73;;;4.80;;
29358;SDS011;16347;53.232;6.556;2023-06-26T06:23:33;16.65;;;4.68;;
29358;SDS011;16347;53.232;6.556;2023-06-26T06:26:02;16.98;;;5.22;;
29358;SDS011;16347;53.232;6.556;2023-06-26T06:28:31;19.17;;;4.63;;
29358;SDS011;16347;53.232;6.556;2023-06-26T06:31:00;20.63;;;4.32;;
29358;SDS011;16347;53.232;6.556;2023-06-26T06:33:29;12.07;;;3.90;;
29358;SDS011;16347;53.232;6.556;2023-06-26T06:35:57;25.13;;;5.50;;
29358;SDS011;16347;53.232;6.556;2023-06-26T06:38:25;10.18;;;3.78;;
29358;SDS011;16347;53.232;6.556;2023-06-26T06:40:53;20.48;;;3.78;;
29358;SDS011;16347;53.232;6.556;2023-06-26T06:43:21;21.92;;;4.03;;
29358;SDS011;16347;53.232;6.556;2023-06-26T06:45:49;15.00;;;3.42;;
29358;SDS011;16347;53.232;6.556;2023-06-26T06:48:19;15.43;;;3.35;;
29358;SDS011;16347;53.232;6.556;2023-06-26T06:50:47;10.93;;;3.03;;
29358;SDS011;16347;53.232;6.556;2023-06-26T06:53:16;14.88;;;3.35;;
29358;SDS011;16347;53.232;6.556;2023-06-26T06:55:46;16.65;;;3.70;;
29358;SDS011;16347;53.232;6.556;2023-06-26T06:58:15;12.25;;;3.00;;
29358;SDS011;16347;53.232;6.556;2023-06-26T07:00:45;18.48;;;3.55;;
29358;SDS011;16347;53.232;6.556;2023-06-26T07:03:13;19.05;;;3.88;;
29358;SDS011;16347;53.232;6.556;2023-06-26T07:05:43;10.18;;;3.40;;
29358;SDS011;16347;53.232;6.556;2023-06-26T07:08:12;20.52;;;3.15;;
29358;SDS011;16347;53.232;6.556;2023-06-26T07:10:40;10.00;;;2.60;;
29358;SDS011;16347;53.232;6.556;2023-06-26T07:13:09;9.32;;;2.97;;
29358;SDS011;16347;53.232;6.556;2023-06-26T07:15:37;9.45;;;2.53;;
29358;SDS011;16347;53.232;6.556;2023-06-26T07:18:05;12.75;;;2.85;;
29358;SDS011;16347;53.232;6.556;2023-06-26T07:20:33;13.60;;;2.53;;
29358;SDS011;16347;53.232;6.556;2023-06-26T07:23:02;12.40;;;3.10;;
29358;SDS011;16347;53.232;6.556;2023-06-26T07:25:30;15.00;;;2.80;;
29358;SDS011;16347;53.232;6.556;2023-06-26T07:27:58;9.45;;;2.85;;
29358;SDS011;16347;53.232;6.556;2023-06-26T07:30:27;15.27;;;2.85;;
29358;SDS011;16347;53.232;6.556;2023-06-26T07:32:55;14.30;;;3.95;;
29358;SDS011;16347;53.232;6.556;2023-06-26T07:35:23;13.95;;;2.72;;
29358;SDS011;16347;53.232;6.556;2023-06-26T07:37:53;9.93;;;2.47;;
29358;SDS011;16347;53.232;6.556;2023-06-26T07:40:23;6.97;;;2.20;;
29358;SDS011;16347;53.232;6.556;2023-06-26T07:42:52;12.23;;;2.35;;
29358;SDS011;16347;53.232;6.556;2023-06-26T07:45:21;11.77;;;1.85;;
29358;SDS011;16347;53.232;6.556;2023-06-26T07:47:52;9.32;;;2.15;;
29358;SDS011;16347;53.232;6.556;2023-06-26T07:50:20;9.10;;;2.58;;
29358;SDS011;16347;53.232;6.556;2023-06-26T07:52:50;6.53;;;1.80;;
29358;SDS011;16347;53.232;6.556;2023-06-26T07:55:19;7.88;;;2.38;;
29358;SDS011;16347;53.232;6.556;2023-06-26T07:57:49;12.35;;;2.00;;
29358;SDS011;16347;53.232;6.556;2023-06-26T08:00:19;21.85;;;2.58;;
29358;SDS011;16347;53.232;6.556;2023-06-26T08:02:51;12.52;;;2.45;;
29358;SDS011;16347;53.232;6.556;2023-06-26T08:05:19;10.50;;;2.35;;
29358;SDS011;16347;53.232;6.556;2023-06-26T08:07:47;10.65;;;2.22;;
29358;SDS011;16347;53.232;6.556;2023-06-26T08:10:15;7.32;;;1.90;;
29358;SDS011;16347;53.232;6.556;2023-06-26T08:12:43;5.10;;;1.73;;
29358;SDS011;16347;53.232;6.556;2023-06-26T08:15:13;11.88;;;2.30;;
29358;SDS011;16347;53.232;6.556;2023-06-26T08:17:41;6.50;;;2.00;;
29358;SDS011;16347;53.232;6.556;2023-06-26T08:20:09;9.38;;;2.17;;
29358;SDS011;16347;53.232;6.556;2023-06-26T08:22:39;11.75;;;1.75;;
29358;SDS011;16347;53.232;6.556;2023-06-26T08:25:07;6.97;;;1.90;;
29358;SDS011;16347;53.232;6.556;2023-06-26T08:27:36;8.95;;;1.88;;
29358;SDS011;16347;53.232;6.556;2023-06-26T08:30:05;9.73;;;2.30;;
29358;SDS011;16347;53.232;6.556;2023-06-26T08:32:36;6.53;;;2.38;;
29358;SDS011;16347;53.232;6.556;2023-06-26T08:35:05;7.28;;;2.35;;
29358;SDS011;16347;53.232;6.556;2023-06-26T08:37:36;25.35;;;2.97;;
29358;SDS011;16347;53.232;6.556;2023-06-26T08:40:05;10.07;;;2.05;;
29358;SDS011;16347;53.232;6.556;2023-06-26T08:42:35;5.93;;;2.17;;
29358;SDS011;16347;53.232;6.556;2023-06-26T08:45:03;11.93;;;2.72;;
29358;SDS011;16347;53.232;6.556;2023-06-26T08:47:33;14.07;;;2.80;;
29358;SDS011;16347;53.232;6.556;2023-06-26T08:50:07;7.90;;;2.17;;
29358;SDS011;16347;53.232;6.556;2023-06-26T08:52:36;10.10;;;2.90;;
29358;SDS011;16347;53.232;6.556;2023-06-26T08:55:09;7.60;;;1.80;;
29358;SDS011;16347;53.232;6.556;2023-06-26T08:57:38;6.22;;;2.15;;
29358;SDS011;16347;53.232;6.556;2023-06-26T09:00:07;8.77;;;2.20;;
29358;SDS011;16347;53.232;6.556;2023-06-26T09:02:36;10.95;;;3.28;;
29358;SDS011;16347;53.232;6.556;2023-06-26T09:05:10;6.40;;;2.30;;
29358;SDS011;16347;53.232;6.556;2023-06-26T09:07:39;9.32;;;2.30;;
29358;SDS011;16347;53.232;6.556;2023-06-26T09:10:08;7.93;;;2.17;;
29358;SDS011;16347;53.232;6.556;2023-06-26T09:12:36;6.35;;;2.00;;
29358;SDS011;16347;53.232;6.556;2023-06-26T09:15:05;7.85;;;2.10;;
29358;SDS011;16347;53.232;6.556;2023-06-26T09:17:38;6.90;;;2.53;;
29358;SDS011;16347;53.232;6.556;2023-06-26T09:20:08;5.68;;;2.03;;
29358;SDS011;16347;53.232;6.556;2023-06-26T09:22:41;10.30;;;2.58;;
29358;SDS011;16347;53.232;6.556;2023-06-26T09:25:10;5.25;;;1.92;;
29358;SDS011;16347;53.232;6.556;2023-06-26T09:27:39;5.25;;;1.77;;
29358;SDS011;16347;53.232;6.556;2023-06-26T09:30:07;4.07;;;2.13;;
29358;SDS011;16347;53.232;6.556;2023-06-26T09:32:36;7.10;;;2.38;;
29358;SDS011;16347;53.232;6.556;2023-06-26T09:35:04;11.73;;;2.60;;
29358;SDS011;16347;53.232;6.556;2023-06-26T09:37:35;8.18;;;2.42;;
29358;SDS011;16347;53.232;6.556;2023-06-26T09:40:04;10.00;;;2.60;;
29358;SDS011;16347;53.232;6.556;2023-06-26T09:42:33;26.33;;;2.83;;
29358;SDS011;16347;53.232;6.556;2023-06-26T09:45:02;12.10;;;2.67;;
29358;SDS011;16347;53.232;6.556;2023-06-26T09:47:30;7.07;;;2.30;;
29358;SDS011;16347;53.232;6.556;2023-06-26T09:49:59;6.63;;;2.10;;
29358;SDS011;16347;53.232;6.556;2023-06-26T09:52:27;3.95;;;2.33;;
29358;SDS011;16347;53.232;6.556;2023-06-26T09:55:08;4.13;;;2.00;;
29358;SDS011;16347;53.232;6.556;2023-06-26T09:57:37;7.28;;;2.65;;
29358;SDS011;16347;53.232;6.556;2023-06-26T10:00:06;16.23;;;3.33;;
29358;SDS011;16347;53.232;6.556;2023-06-26T10:02:38;5.32;;;2.45;;
29358;SDS011;16347;53.232;6.556;2023-06-26T10:05:06;7.47;;;2.55;;
29358;SDS011;16347;53.232;6.556;2023-06-26T10:07:35;7.45;;;2.88;;
29358;SDS011;16347;53.232;6.556;2023-06-26T10:10:04;10.52;;;3.17;;
29358;SDS011;16347;53.232;6.556;2023-06-26T10:12:36;8.95;;;2.90;;
29358;SDS011;16347;53.232;6.556;2023-06-26T10:15:04;7.18;;;2.85;;
29358;SDS011;16347;53.232;6.556;2023-06-26T10:17:39;5.93;;;2.85;;
29358;SDS011;16347;53.232;6.556;2023-06-26T10:20:10;9.27;;;2.80;;
29358;SDS011;16347;53.232;6.556;2023-06-26T10:22:41;5.70;;;2.53;;
29358;SDS011;16347;53.232;6.556;2023-06-26T10:25:14;10.15;;;3.03;;
29358;SDS011;16347;53.232;6.556;2023-06-26T10:27:49;10.48;;;2.92;;
29358;SDS011;16347;53.232;6.556;2023-06-26T10:30:20;9.95;;;3.35;;
29358;SDS011;16347;53.232;6.556;2023-06-26T10:32:52;8.80;;;2.92;;
29358;SDS011;16347;53.232;6.556;2023-06-26T10:35:21;13.90;;;3.58;;
29358;SDS011;16347;53.232;6.556;2023-06-26T10:37:50;9.50;;;3.28;;
29358;SDS011;16347;53.232;6.556;2023-06-26T10:40:22;5.72;;;2.70;;
29358;SDS011;16347;53.232;6.556;2023-06-26T10:43:06;7.70;;;2.78;;
29358;SDS011;16347;53.232;6.556;2023-06-26T10:45:35;6.55;;;3.00;;
29358;SDS011;16347;53.232;6.556;2023-06-26T10:48:04;11.10;;;3.25;;
29358;SDS011;16347;53.232;6.556;2023-06-26T10:50:33;4.13;;;2.35;;
29358;SDS011;16347;53.232;6.556;2023-06-26T10:53:07;13.20;;;3.20;;
29358;SDS011;16347;53.232;6.556;2023-06-26T10:55:41;11.50;;;3.13;;
29358;SDS011;16347;53.232;6.556;2023-06-26T10:58:28;6.72;;;2.50;;
29358;SDS011;16347;53.232;6.556;2023-06-26T11:01:19;9.05;;;2.40;;
29358;SDS011;16347;53.232;6.556;2023-06-26T11:03:49;10.73;;;2.55;;
29358;SDS011;16347;53.232;6.556;2023-06-26T11:06:30;7.53;;;2.50;;
29358;SDS011;16347;53.232;6.556;2023-06-26T11:09:00;10.65;;;2.33;;
29358;SDS011;16347;53.232;6.556;2023-06-26T11:14:33;4.97;;;2.03;;
29358;SDS011;16347;53.232;6.556;2023-06-26T11:17:04;8.00;;;2.60;;
29358;SDS011;16347;53.232;6.556;2023-06-26T11:19:33;7.47;;;1.95;;
29358;SDS011;16347;53.232;6.556;2023-06-26T11:22:03;7.47;;;2.10;;
29358;SDS011;16347;53.232;6.556;2023-06-26T11:24:32;18.80;;;2.67;;
29358;SDS011;16347;53.232;6.556;2023-06-26T11:27:01;11.55;;;3.03;;
29358;SDS011;16347;53.232;6.556;2023-06-26T11:29:32;8.07;;;2.03;;
29358;SDS011;16347;53.232;6.556;2023-06-26T11:32:01;10.25;;;2.00;;
29358;SDS011;16347;53.232;6.556;2023-06-26T11:34:33;9.88;;;2.10;;
29358;SDS011;16347;53.232;6.556;2023-06-26T11:37:02;8.45;;;1.95;;
29358;SDS011;16347;53.232;6.556;2023-06-26T11:39:31;18.40;;;2.38;;
29358;SDS011;16347;53.232;6.556;2023-06-26T11:41:59;7.55;;;1.90;;
29358;SDS011;16347;53.232;6.556;2023-06-26T11:44:32;10.07;;;2.28;;
29358;SDS011;16347;53.232;6.556;2023-06-26T11:47:11;11.57;;;1.95;;
29358;SDS011;16347;53.232;6.556;2023-06-26T11:49:41;11.70;;;2.17;;
29358;SDS011;16347;53.232;6.556;2023-06-26T11:52:10;9.73;;;1.92;;
29358;SDS011;16347;53.232;6.556;2023-06-26T11:54:38;12.00;;;2.28;;
29358;SDS011;16347;53.232;6.556;2023-06-26T11:57:06;6.10;;;1.80;;
29358;SDS011;16347;53.232;6.556;2023-06-26T11:59:36;14.07;;;1.75;;
29358;SDS011;16347;53.232;6.556;2023-06-26T12:02:06;9.75;;;2.35;;
29358;SDS011;16347;53.232;6.556;2023-06-26T12:04:35;11.68;;;2.47;;
29358;SDS011;16347;53.232;6.556;2023-06-26T12:07:06;8.25;;;1.70;;
29358;SDS011;16347;53.232;6.556;2023-06-26T12:09:39;9.65;;;2.03;;
29358;SDS011;16347;53.232;6.556;2023-06-26T12:12:10;15.30;;;2.15;;
29358;SDS011;16347;53.232;6.556;2023-06-26T12:14:43;13.93;;;2.25;;
29358;SDS011;16347;53.232;6.556;2023-06-26T12:17:12;12.57;;;2.40;;
29358;SDS011;16347;53.232;6.556;2023-06-26T12:19:42;12.48;;;2.28;;
29358;SDS011;16347;53.232;6.556;2023-06-26T12:22:14;24.20;;;2.78;;
29358;SDS011;16347;53.232;6.556;2023-06-26T12:24:43;13.27;;;2.25;;
29358;SDS011;16347;53.232;6.556;2023-06-26T12:27:12;9.63;;;1.92;;
29358;SDS011;16347;53.232;6.556;2023-06-26T12:29:42;6.88;;;1.73;;
29358;SDS011;16347;53.232;6.556;2023-06-26T12:32:18;6.70;;;1.98;;
29358;SDS011;16347;53.232;6.556;2023-06-26T12:34:46;12.25;;;2.22;;
29358;SDS011;16347;53.232;6.556;2023-06-26T12:37:16;14.20;;;2.00;;
29358;SDS011;16347;53.232;6.556;2023-06-26T12:39:45;11.40;;;1.85;;
29358;SDS011;16347;53.232;6.556;2023-06-26T12:42:14;9.13;;;2.25;;
29358;SDS011;16347;53.232;6.556;2023-06-26T12:44:43;6.70;;;1.85;;
29358;SDS011;16347;53.232;6.556;2023-06-26T12:47:12;9.63;;;1.90;;
29358;SDS011;16347;53.232;6.556;2023-06-26T12:49:42;6.00;;;1.67;;
29358;SDS011;16347;53.232;6.556;2023-06-26T12:52:11;11.50;;;2.33;;
29358;SDS011;16347;53.232;6.556;2023-06-26T12:54:40;4.80;;;1.55;;
29358;SDS011;16347;53.232;6.556;2023-06-26T12:57:09;6.22;;;2.00;;
29358;SDS011;16347;53.232;6.556;2023-06-26T12:59:37;5.30;;;1.50;;
29358;SDS011;16347;53.232;6.556;2023-06-26T13:02:06;4.88;;;1.63;;
29358;SDS011;16347;53.232;6.556;2023-06-26T13:04:36;4.78;;;1.48;;
29358;SDS011;16347;53.232;6.556;2023-06-26T13:07:06;6.53;;;1.40;;
29358;SDS011;16347;53.232;6.556;2023-06-26T13:09:34;5.20;;;1.83;;
29358;SDS011;16347;53.232;6.556;2023-06-26T13:12:03;9.18;;;2.58;;
29358;SDS011;16347;53.232;6.556;2023-06-26T13:14:35;8.65;;;1.38;;
29358;SDS011;16347;53.232;6.556;2023-06-26T13:17:03;4.03;;;1.20;;
29358;SDS011;16347;53.232;6.556;2023-06-26T13:19:36;8.53;;;1.77;;
29358;SDS011;16347;53.232;6.556;2023-06-26T13:22:05;8.95;;;2.05;;
29358;SDS011;16347;53.232;6.556;2023-06-26T13:24:33;16.27;;;2.50;;
29358;SDS011;16347;53.232;6.556;2023-06-26T13:27:01;11.65;;;1.83;;
29358;SDS011;16347;53.232;6.556;2023-06-26T13:29:31;7.88;;;1.60;;
29358;SDS011;16347;53.232;6.556;2023-06-26T13:31:59;11.57;;;2.85;;
29358;SDS011;16347;53.232;6.556;2023-06-26T13:34:27;8.70;;;1.67;;
29358;SDS011;16347;53.232;6.556;2023-06-26T13:36:57;8.02;;;2.55;;
29358;SDS011;16347;53.232;6.556;2023-06-26T13:39:26;4.85;;;1.55;;
29358;SDS011;16347;53.232;6.556;2023-06-26T13:41:54;3.47;;;1.40;;
29358;SDS011;16347;53.232;6.556;2023-06-26T13:44:23;16.67;;;2.35;;
29358;SDS011;16347;53.232;6.556;2023-06-26T13:47:04;14.68;;;2.45;;
29358;SDS011;16347;53.232;6.556;2023-06-26T13:49:36;16.40;;;2.65;;
29358;SDS011;16347;53.232;6.556;2023-06-26T13:52:06;11.43;;;1.92;;
29358;SDS011;16347;53.232;6.556;2023-06-26T13:54:35;13.13;;;2.40;;
29358;SDS011;16347;53.232;6.556;2023-06-26T13:57:06;15.93;;;2.08;;
29358;SDS011;16347;53.232;6.556;2023-06-26T13:59:36;9.90;;;3.35;;
29358;SDS011;16347;53.232;6.556;2023-06-26T14:02:06;16.70;;;2.20;;
29358;SDS011;16347;53.232;6.556;2023-06-26T14:04:34;12.15;;;2.10;;
29358;SDS011;16347;53.232;6.556;2023-06-26T14:07:04;8.70;;;1.80;;
29358;SDS011;16347;53.232;6.556;2023-06-26T14:09:35;5.68;;;1.60;;
29358;SDS011;16347;53.232;6.556;2023-06-26T14:12:04;7.03;;;1.75;;
29358;SDS011;16347;53.232;6.556;2023-06-26T14:14:33;6.85;;;1.67;;
29358;SDS011;16347;53.232;6.556;2023-06-26T14:17:02;11.75;;;2.25;;
29358;SDS011;16347;53.232;6.556;2023-06-26T14:19:32;6.70;;;1.98;;
29358;SDS011;16347;53.232;6.556;2023-06-26T14:22:01;6.07;;;1.80;;
29358;SDS011;16347;53.232;6.556;2023-06-26T14:24:30;8.38;;;1.63;;
29358;SDS011;16347;53.232;6.556;2023-06-26T14:27:00;6.90;;;1.65;;
29358;SDS011;16347;53.232;6.556;2023-06-26T14:29:30;9.30;;;1.73;;
29358;SDS011;16347;53.232;6.556;2023-06-26T14:31:58;10.80;;;2.03;;
29358;SDS011;16347;53.232;6.556;2023-06-26T14:34:27;16.33;;;2.53;;
29358;SDS011;16347;53.232;6.556;2023-06-26T14:36:57;5.82;;;2.00;;
29358;SDS011;16347;53.232;6.556;2023-06-26T14:39:28;6.55;;;1.75;;
29358;SDS011;16347;53.232;6.556;2023-06-26T14:41:56;10.43;;;2.30;;
29358;SDS011;16347;53.232;6.556;2023-06-26T14:44:27;14.23;;;2.38;;
29358;SDS011;16347;53.232;6.556;2023-06-26T14:46:56;11.45;;;1.90;;
29358;SDS011;16347;53.232;6.556;2023-06-26T14:49:25;15.20;;;2.42;;
29358;SDS011;16347;53.232;6.556;2023-06-26T14:51:53;8.68;;;1.85;;
29358;SDS011;16347;53.232;6.556;2023-06-26T14:54:22;18.80;;;2.22;;
29358;SDS011;16347;53.232;6.556;2023-06-26T14:56:51;8.57;;;1.83;;
29358;SDS011;16347;53.232;6.556;2023-06-26T14:59:20;12.57;;;2.40;;